Terminal Aerodrome Forecast
Issued by NWS Sioux Falls, SD

Home | Current Version | Previous Version | Graphics & Text | Print | Product List | Glossary On
Versions: 1 2 3 4 5 6 7 8 9 10 11 12 13 14 15 16 17 18 19 20 21 22 23 24 25 26 27 28 29
643
FTUS43 KFSD 222328
TAFSUX
TAF
KSUX 222328Z 2300/2324 14007KT P6SM BKN040
     FM230200 10010KT P6SM FEW035 SCT200
     FM230800 13006KT P6SM BKN150
     FM231600 17012KT P6SM SCT100 BKN150=

USA.gov is the U.S. government's official web portal to all federal, state and local government web resources and services.